KDTW/DTW METAR and TAF weather

Enter ICAO airport designator
Station Type Date Time Source
KDTW METAR 2021/02/25 15:53 UTC NOAA

KDTW 251553Z 28007KT 10SM FEW050 01/M11 A3032 RMK AO2 SLP275 T00111111


Station Type Date Time Source
KDTW Decoded METAR 2021/02/25 15:53 UTC NOAA

DETROIT METROPOLITAN, MI, United States (KDTW) 42-14N 83-20W 195M
Feb 25, 2021 - 10:53 AM EST / 2021.02.25 1553 UTC
Wind: from the W (280 degrees) at 8 MPH (7 KT):0
Visibility: 10 mile(s):0
Sky conditions: mostly clear
Temperature: 34.0 F (1.1 C)
Windchill: 26 F (-3 C):1
Dew Point: 12.0 F (-11.1 C)
Relative Humidity: 39%
Pressure (altimeter): 30.32 in. Hg (1026 hPa)
ob: KDTW 251553Z 28007KT 10SM FEW050 01/M11 A3032 RMK AO2 SLP275 T00111111
cycle: 16

Station Type Date Time Source
KDTW TAF 2021/02/25 15:06 UTC NOAA

TAF
AMD KDTW 251502Z 2515/2618 30007KT P6SM SKC
FM251700 24010KT P6SM SCT030
FM251900 26013KT P6SM BKN040
FM252300 24010KT P6SM SKC
FM260500 25003KT 5SM HZ SKC

Example: see airport list